sensor_id;sensor_type;location;lat;lon;timestamp;pressure;altitude;pressure_sealevel;temperature;humidity
50338;BME280;46221;51.178;5.900;2022-12-24T00:00:58;100546.44;;;16.35;60.82
50338;BME280;46221;51.178;5.900;2022-12-24T00:03:25;100555.09;;;16.40;60.58
50338;BME280;46221;51.178;5.900;2022-12-24T00:05:51;100559.66;;;16.38;60.43
50338;BME280;46221;51.178;5.900;2022-12-24T00:08:18;100557.94;;;16.37;60.69
50338;BME280;46221;51.178;5.900;2022-12-24T00:10:52;100562.44;;;16.36;60.55
50338;BME280;46221;51.178;5.900;2022-12-24T00:13:20;100566.88;;;16.36;60.55
50338;BME280;46221;51.178;5.900;2022-12-24T00:15:46;100561.81;;;16.31;60.65
50338;BME280;46221;51.178;5.900;2022-12-24T00:18:13;100566.13;;;16.34;60.59
50338;BME280;46221;51.178;5.900;2022-12-24T00:20:40;100565.34;;;16.32;60.79
50338;BME280;46221;51.178;5.900;2022-12-24T00:23:06;100571.66;;;16.31;60.90
50338;BME280;46221;51.178;5.900;2022-12-24T00:25:33;100565.13;;;16.20;60.69
50338;BME280;46221;51.178;5.900;2022-12-24T00:27:59;100578.72;;;16.32;60.82
50338;BME280;46221;51.178;5.900;2022-12-24T00:30:26;100577.00;;;16.31;60.80
50338;BME280;46221;51.178;5.900;2022-12-24T00:32:53;100573.56;;;16.29;60.94
50338;BME280;46221;51.178;5.900;2022-12-24T00:35:19;100591.34;;;16.30;60.56
50338;BME280;46221;51.178;5.900;2022-12-24T00:37:47;100587.88;;;16.28;60.70
50338;BME280;46221;51.178;5.900;2022-12-24T00:40:15;100591.41;;;16.28;60.73
50338;BME280;46221;51.178;5.900;2022-12-24T00:42:41;100583.38;;;16.28;60.80
50338;BME280;46221;51.178;5.900;2022-12-24T00:45:10;100583.38;;;16.28;60.77
50338;BME280;46221;51.178;5.900;2022-12-24T00:47:37;100586.50;;;16.20;60.68
50338;BME280;46221;51.178;5.900;2022-12-24T00:50:04;100606.78;;;16.24;60.83
50338;BME280;46221;51.178;5.900;2022-12-24T00:52:31;100599.78;;;16.22;60.83
50338;BME280;46221;51.178;5.900;2022-12-24T00:54:57;100601.59;;;16.21;60.90
50338;BME280;46221;51.178;5.900;2022-12-24T00:57:24;100615.81;;;16.22;61.18
50338;BME280;46221;51.178;5.900;2022-12-24T00:59:50;100596.53;;;16.17;61.12
50338;BME280;46221;51.178;5.900;2022-12-24T01:02:17;100606.38;;;16.16;61.21
50338;BME280;46221;51.178;5.900;2022-12-24T01:04:43;100615.25;;;16.17;61.22
50338;BME280;46221;51.178;5.900;2022-12-24T01:07:28;100615.31;;;16.15;61.10
50338;BME280;46221;51.178;5.900;2022-12-24T01:09:55;100630.44;;;16.16;61.20
50338;BME280;46221;51.178;5.900;2022-12-24T01:12:21;100637.56;;;16.16;61.29
50338;BME280;46221;51.178;5.900;2022-12-24T01:14:48;100634.88;;;16.16;61.28
50338;BME280;46221;51.178;5.900;2022-12-24T01:17:15;100629.97;;;16.08;61.07
50338;BME280;46221;51.178;5.900;2022-12-24T01:19:41;100637.25;;;16.06;61.09
50338;BME280;46221;51.178;5.900;2022-12-24T01:22:08;100659.16;;;16.13;61.26
50338;BME280;46221;51.178;5.900;2022-12-24T01:24:34;100664.50;;;16.13;61.11
50338;BME280;46221;51.178;5.900;2022-12-24T01:27:01;100647.94;;;16.06;61.15
50338;BME280;46221;51.178;5.900;2022-12-24T01:29:28;100648.09;;;16.03;61.45
50338;BME280;46221;51.178;5.900;2022-12-24T01:31:54;100649.66;;;16.07;61.02
50338;BME280;46221;51.178;5.900;2022-12-24T01:34:21;100649.03;;;16.02;61.52
50338;BME280;46221;51.178;5.900;2022-12-24T01:36:47;100650.69;;;16.05;61.30
50338;BME280;46221;51.178;5.900;2022-12-24T01:39:16;100664.06;;;16.05;61.42
50338;BME280;46221;51.178;5.900;2022-12-24T01:41:42;100664.16;;;16.03;61.35
50338;BME280;46221;51.178;5.900;2022-12-24T01:44:29;100667.84;;;16.00;61.33
50338;BME280;46221;51.178;5.900;2022-12-24T01:47:21;100662.56;;;15.99;61.34
50338;BME280;46221;51.178;5.900;2022-12-24T01:49:58;100666.19;;;15.98;61.60
50338;BME280;46221;51.178;5.900;2022-12-24T01:52:34;100679.50;;;15.99;61.42
50338;BME280;46221;51.178;5.900;2022-12-24T01:55:12;100671.56;;;15.98;61.39
50338;BME280;46221;51.178;5.900;2022-12-24T01:57:51;100661.88;;;15.95;61.61
50338;BME280;46221;51.178;5.900;2022-12-24T02:00:18;100661.81;;;15.97;61.67
50338;BME280;46221;51.178;5.900;2022-12-24T02:02:46;100664.50;;;15.97;61.56
50338;BME280;46221;51.178;5.900;2022-12-24T02:08:03;100682.25;;;15.98;61.30
50338;BME280;46221;51.178;5.900;2022-12-24T02:10:30;100680.69;;;15.94;61.70
50338;BME280;46221;51.178;5.900;2022-12-24T02:12:58;100675.19;;;15.97;61.71
50338;BME280;46221;51.178;5.900;2022-12-24T02:15:27;100677.75;;;15.98;61.81
50338;BME280;46221;51.178;5.900;2022-12-24T02:18:25;100678.78;;;15.96;61.51
50338;BME280;46221;51.178;5.900;2022-12-24T02:23:41;100685.94;;;15.95;61.58
50338;BME280;46221;51.178;5.900;2022-12-24T02:26:59;100685.25;;;15.92;61.62
50338;BME280;46221;51.178;5.900;2022-12-24T02:30:01;100688.78;;;15.92;61.78
50338;BME280;46221;51.178;5.900;2022-12-24T02:35:19;100684.31;;;15.93;61.60
50338;BME280;46221;51.178;5.900;2022-12-24T02:37:52;100694.06;;;15.94;61.64
50338;BME280;46221;51.178;5.900;2022-12-24T02:40:28;100698.59;;;15.92;61.72
50338;BME280;46221;51.178;5.900;2022-12-24T02:43:08;100701.22;;;15.93;61.88
50338;BME280;46221;51.178;5.900;2022-12-24T02:45:38;100710.84;;;15.96;61.69
50338;BME280;46221;51.178;5.900;2022-12-24T02:48:06;100706.47;;;15.95;61.90
50338;BME280;46221;51.178;5.900;2022-12-24T02:50:34;100717.94;;;15.97;61.66
50338;BME280;46221;51.178;5.900;2022-12-24T02:53:00;100712.59;;;15.97;61.68
50338;BME280;46221;51.178;5.900;2022-12-24T03:09:26;100712.78;;;15.94;61.58
50338;BME280;46221;51.178;5.900;2022-12-24T03:12:11;100714.66;;;15.92;61.51
50338;BME280;46221;51.178;5.900;2022-12-24T03:14:40;100708.59;;;15.88;61.77
50338;BME280;46221;51.178;5.900;2022-12-24T03:17:08;100698.78;;;15.89;61.50
50338;BME280;46221;51.178;5.900;2022-12-24T03:19:38;100718.13;;;15.94;61.49
50338;BME280;46221;51.178;5.900;2022-12-24T03:22:09;100705.69;;;15.93;61.65
50338;BME280;46221;51.178;5.900;2022-12-24T03:24:36;100706.47;;;15.95;61.74
50338;BME280;46221;51.178;5.900;2022-12-24T03:27:06;100704.75;;;15.94;61.46
50338;BME280;46221;51.178;5.900;2022-12-24T03:29:34;100723.47;;;15.94;61.44
50338;BME280;46221;51.178;5.900;2022-12-24T03:32:02;100720.69;;;15.95;61.61
50338;BME280;46221;51.178;5.900;2022-12-24T03:34:29;100725.19;;;15.95;61.33
50338;BME280;46221;51.178;5.900;2022-12-24T03:36:56;100728.13;;;15.90;61.58
50338;BME280;46221;51.178;5.900;2022-12-24T03:39:22;100739.50;;;15.94;61.56
50338;BME280;46221;51.178;5.900;2022-12-24T03:41:49;100739.66;;;15.91;61.42
50338;BME280;46221;51.178;5.900;2022-12-24T03:44:15;100739.50;;;15.94;61.44
50338;BME280;46221;51.178;5.900;2022-12-24T03:46:42;100726.47;;;15.88;61.48
50338;BME280;46221;51.178;5.900;2022-12-24T03:49:08;100737.84;;;15.91;61.56
50338;BME280;46221;51.178;5.900;2022-12-24T03:51:34;100751.22;;;15.91;61.52
50338;BME280;46221;51.178;5.900;2022-12-24T03:54:01;100755.53;;;15.94;61.86
50338;BME280;46221;51.178;5.900;2022-12-24T03:56:27;100738.63;;;15.93;61.64
50338;BME280;46221;51.178;5.900;2022-12-24T03:58:54;100746.72;;;15.92;61.46
50338;BME280;46221;51.178;5.900;2022-12-24T04:01:20;100750.19;;;15.94;61.73
50338;BME280;46221;51.178;5.900;2022-12-24T04:03:47;100743.63;;;15.84;61.54
50338;BME280;46221;51.178;5.900;2022-12-24T04:06:17;100754.59;;;15.95;61.47
50338;BME280;46221;51.178;5.900;2022-12-24T04:08:44;100752.22;;;15.89;61.39
50338;BME280;46221;51.178;5.900;2022-12-24T04:11:15;100752.16;;;15.90;61.50
50338;BME280;46221;51.178;5.900;2022-12-24T04:13:42;100749.56;;;15.89;61.77
50338;BME280;46221;51.178;5.900;2022-12-24T04:16:12;100755.53;;;15.94;61.33
50338;BME280;46221;51.178;5.900;2022-12-24T04:18:39;100753.81;;;15.93;61.46
50338;BME280;46221;51.178;5.900;2022-12-24T04:21:07;100741.53;;;15.89;61.51
50338;BME280;46221;51.178;5.900;2022-12-24T04:23:35;100752.06;;;15.92;61.48
50338;BME280;46221;51.178;5.900;2022-12-24T04:26:03;100755.53;;;15.94;61.44
50338;BME280;46221;51.178;5.900;2022-12-24T04:28:31;100770.78;;;15.92;61.46
50338;BME280;46221;51.178;5.900;2022-12-24T04:31:04;100772.59;;;15.91;61.28
50338;BME280;46221;51.178;5.900;2022-12-24T04:33:31;100779.13;;;15.86;61.46
50338;BME280;46221;51.178;5.900;2022-12-24T04:35:58;100774.31;;;15.92;61.40
50338;BME280;46221;51.178;5.900;2022-12-24T04:38:26;100784.16;;;15.92;61.55
50338;BME280;46221;51.178;5.900;2022-12-24T04:41:06;100785.09;;;15.91;61.28
50338;BME280;46221;51.178;5.900;2022-12-24T04:43:33;100793.19;;;15.89;61.38
50338;BME280;46221;51.178;5.900;2022-12-24T04:46:08;100779.28;;;15.83;61.80
50338;BME280;46221;51.178;5.900;2022-12-24T04:48:35;100795.84;;;15.89;61.52
50338;BME280;46221;51.178;5.900;2022-12-24T04:51:03;100786.06;;;15.90;61.65
50338;BME280;46221;51.178;5.900;2022-12-24T04:53:31;100786.06;;;15.90;61.50
50338;BME280;46221;51.178;5.900;2022-12-24T04:55:58;100792.31;;;15.89;61.63
50338;BME280;46221;51.178;5.900;2022-12-24T04:58:24;100776.00;;;15.77;61.64
50338;BME280;46221;51.178;5.900;2022-12-24T05:00:51;100788.78;;;15.88;61.39
50338;BME280;46221;51.178;5.900;2022-12-24T05:03:18;100796.06;;;15.86;61.61
50338;BME280;46221;51.178;5.900;2022-12-24T05:05:44;100781.88;;;15.84;61.28
50338;BME280;46221;51.178;5.900;2022-12-24T05:08:11;100787.31;;;15.83;61.60
50338;BME280;46221;51.178;5.900;2022-12-24T05:10:37;100786.28;;;15.85;61.88
50338;BME280;46221;51.178;5.900;2022-12-24T05:13:04;100795.16;;;15.86;61.64
50338;BME280;46221;51.178;5.900;2022-12-24T05:15:30;100801.47;;;15.85;61.50
50338;BME280;46221;51.178;5.900;2022-12-24T05:17:57;100791.72;;;15.84;61.43
50338;BME280;46221;51.178;5.900;2022-12-24T05:20:23;100793.38;;;15.86;61.54
50338;BME280;46221;51.178;5.900;2022-12-24T05:22:50;100787.13;;;15.86;61.50
50338;BME280;46221;51.178;5.900;2022-12-24T05:25:37;100788.09;;;15.85;61.54
50338;BME280;46221;51.178;5.900;2022-12-24T05:28:23;100782.16;;;15.80;61.68
50338;BME280;46221;51.178;5.900;2022-12-24T05:30:50;100774.59;;;15.70;61.88
50338;BME280;46221;51.178;5.900;2022-12-24T05:33:16;100800.66;;;15.83;61.50
50338;BME280;46221;51.178;5.900;2022-12-24T05:35:43;100806.00;;;15.83;61.62
50338;BME280;46221;51.178;5.900;2022-12-24T05:38:09;100806.19;;;15.80;61.72
50338;BME280;46221;51.178;5.900;2022-12-24T05:40:35;100811.53;;;15.80;61.65
50338;BME280;46221;51.178;5.900;2022-12-24T05:43:02;100806.34;;;15.76;61.66
50338;BME280;46221;51.178;5.900;2022-12-24T05:45:28;100811.53;;;15.80;61.75
50338;BME280;46221;51.178;5.900;2022-12-24T05:47:55;100813.41;;;15.77;61.59
50338;BME280;46221;51.178;5.900;2022-12-24T05:50:25;100816.88;;;15.80;61.44
50338;BME280;46221;51.178;5.900;2022-12-24T05:52:52;100825.75;;;15.80;61.54
50338;BME280;46221;51.178;5.900;2022-12-24T05:55:18;100828.59;;;15.77;61.50
50338;BME280;46221;51.178;5.900;2022-12-24T05:57:44;100839.28;;;15.77;61.88
50338;BME280;46221;51.178;5.900;2022-12-24T06:00:12;100809.50;;;15.67;61.55
50338;BME280;46221;51.178;5.900;2022-12-24T06:02:39;100834.09;;;15.74;61.49
50338;BME280;46221;51.178;5.900;2022-12-24T06:05:05;100831.31;;;15.75;61.73
50338;BME280;46221;51.178;5.900;2022-12-24T06:07:32;100842.03;;;15.75;61.61
50338;BME280;46221;51.178;5.900;2022-12-24T06:09:58;100838.50;;;15.75;61.73
50338;BME280;46221;51.178;5.900;2022-12-24T06:12:25;100837.72;;;15.73;61.43
50338;BME280;46221;51.178;5.900;2022-12-24T06:14:51;100842.03;;;15.75;61.37
50338;BME280;46221;51.178;5.900;2022-12-24T06:17:18;100839.59;;;15.71;61.47
50338;BME280;46221;51.178;5.900;2022-12-24T06:19:44;100847.38;;;15.75;61.75
50338;BME280;46221;51.178;5.900;2022-12-24T06:22:11;100852.88;;;15.72;61.56
50338;BME280;46221;51.178;5.900;2022-12-24T06:24:37;100858.06;;;15.75;61.79
50338;BME280;46221;51.178;5.900;2022-12-24T06:27:03;100838.06;;;15.65;61.72
50338;BME280;46221;51.178;5.900;2022-12-24T06:29:30;100852.00;;;15.72;61.63
50338;BME280;46221;51.178;5.900;2022-12-24T06:31:56;100840.88;;;15.62;61.96
50338;BME280;46221;51.178;5.900;2022-12-24T06:34:23;100861.69;;;15.74;61.83
50338;BME280;46221;51.178;5.900;2022-12-24T06:36:49;100863.41;;;15.75;61.47
50338;BME280;46221;51.178;5.900;2022-12-24T06:39:15;100865.16;;;15.76;61.78
50338;BME280;46221;51.178;5.900;2022-12-24T06:41:42;100880.38;;;15.74;61.90
50338;BME280;46221;51.178;5.900;2022-12-24T06:44:09;100875.84;;;15.76;61.84
50338;BME280;46221;51.178;5.900;2022-12-24T06:46:35;100879.44;;;15.75;61.98
50338;BME280;46221;51.178;5.900;2022-12-24T06:49:04;100872.53;;;15.71;61.44
50338;BME280;46221;51.178;5.900;2022-12-24T06:51:31;100879.53;;;15.74;61.85
50338;BME280;46221;51.178;5.900;2022-12-24T06:53:57;100879.59;;;15.72;61.76
50338;BME280;46221;51.178;5.900;2022-12-24T06:56:24;100887.38;;;15.77;61.35
50338;BME280;46221;51.178;5.900;2022-12-24T06:58:50;100874.25;;;15.72;61.72
50338;BME280;46221;51.178;5.900;2022-12-24T07:01:18;100876.91;;;15.72;61.67
50338;BME280;46221;51.178;5.900;2022-12-24T07:03:45;100881.19;;;15.76;61.59
50338;BME280;46221;51.178;5.900;2022-12-24T07:06:23;100882.97;;;15.76;61.68
50338;BME280;46221;51.178;5.900;2022-12-24T07:08:49;100891.06;;;15.74;61.70
50338;BME280;46221;51.178;5.900;2022-12-24T07:11:16;100898.09;;;15.77;61.65
50338;BME280;46221;51.178;5.900;2022-12-24T07:13:42;100892.03;;;15.73;61.34
50338;BME280;46221;51.178;5.900;2022-12-24T07:16:09;100896.31;;;15.76;61.71
50338;BME280;46221;51.178;5.900;2022-12-24T07:18:36;100895.56;;;15.74;61.72
50338;BME280;46221;51.178;5.900;2022-12-24T07:21:04;100900.09;;;15.72;61.58
50338;BME280;46221;51.178;5.900;2022-12-24T07:23:32;100899.25;;;15.71;61.92
50338;BME280;46221;51.178;5.900;2022-12-24T07:26:00;100914.19;;;15.75;61.83
50338;BME280;46221;51.178;5.900;2022-12-24T07:28:28;100920.31;;;15.77;61.79
50338;BME280;46221;51.178;5.900;2022-12-24T07:30:55;100915.13;;;15.74;61.87
50338;BME280;46221;51.178;5.900;2022-12-24T07:33:24;100918.44;;;15.80;61.71
50338;BME280;46221;51.178;5.900;2022-12-24T07:35:59;100925.66;;;15.77;61.62
50338;BME280;46221;51.178;5.900;2022-12-24T07:38:26;100922.03;;;15.79;61.64
50338;BME280;46221;51.178;5.900;2022-12-24T07:40:53;100930.16;;;15.77;61.64
50338;BME280;46221;51.178;5.900;2022-12-24T07:43:19;100928.94;;;15.83;61.64
50338;BME280;46221;51.178;5.900;2022-12-24T07:45:46;100939.66;;;15.83;61.51
50338;BME280;46221;51.178;5.900;2022-12-24T07:48:12;100940.38;;;15.86;61.61
50338;BME280;46221;51.178;5.900;2022-12-24T07:50:39;100941.97;;;15.90;61.48
50338;BME280;46221;51.178;5.900;2022-12-24T07:53:05;100939.34;;;15.89;61.27
50338;BME280;46221;51.178;5.900;2022-12-24T07:55:32;100945.41;;;15.92;61.39
50338;BME280;46221;51.178;5.900;2022-12-24T07:57:58;100946.28;;;15.93;61.24
50338;BME280;46221;51.178;5.900;2022-12-24T08:00:24;100955.03;;;15.96;61.30
50338;BME280;46221;51.178;5.900;2022-12-24T08:02:51;100954.78;;;16.01;61.13
50338;BME280;46221;51.178;5.900;2022-12-24T08:05:18;100963.59;;;16.03;61.33
50338;BME280;46221;51.178;5.900;2022-12-24T08:07:44;100952.91;;;16.03;61.13
50338;BME280;46221;51.178;5.900;2022-12-24T08:10:11;100962.56;;;16.06;60.99
50338;BME280;46221;51.178;5.900;2022-12-24T08:12:38;100966.03;;;16.08;61.34
50338;BME280;46221;51.178;5.900;2022-12-24T08:15:05;100966.13;;;16.06;60.92
50338;BME280;46221;51.178;5.900;2022-12-24T08:17:31;100977.56;;;16.08;60.99
50338;BME280;46221;51.178;5.900;2022-12-24T08:19:58;100984.66;;;16.09;60.97
50338;BME280;46221;51.178;5.900;2022-12-24T08:22:24;100985.38;;;16.13;60.73
50338;BME280;46221;51.178;5.900;2022-12-24T08:24:51;100990.63;;;16.14;60.80
50338;BME280;46221;51.178;5.900;2022-12-24T08:27:17;100982.78;;;16.11;60.68
50338;BME280;46221;51.178;5.900;2022-12-24T08:29:44;100994.88;;;16.18;60.74
50338;BME280;46221;51.178;5.900;2022-12-24T08:32:10;100989.38;;;16.21;60.08
50338;BME280;46221;51.178;5.900;2022-12-24T08:34:37;100990.34;;;16.20;60.56
50338;BME280;46221;51.178;5.900;2022-12-24T08:37:03;100983.19;;;16.21;60.56
50338;BME280;46221;51.178;5.900;2022-12-24T08:39:30;100989.38;;;16.21;60.43
50338;BME280;46221;51.178;5.900;2022-12-24T08:41:56;100992.75;;;16.25;60.45
50338;BME280;46221;51.178;5.900;2022-12-24T08:44:23;100995.44;;;16.25;60.40
50338;BME280;46221;51.178;5.900;2022-12-24T08:46:49;101012.34;;;16.26;60.34
50338;BME280;46221;51.178;5.900;2022-12-24T08:49:16;101007.16;;;16.22;60.14
50338;BME280;46221;51.178;5.900;2022-12-24T08:51:42;101007.00;;;16.26;60.10
50338;BME280;46221;51.178;5.900;2022-12-24T08:54:09;101013.06;;;16.29;60.50
50338;BME280;46221;51.178;5.900;2022-12-24T08:56:35;101021.97;;;16.30;60.24
50338;BME280;46221;51.178;5.900;2022-12-24T08:59:02;101019.28;;;16.30;60.21
50338;BME280;46221;51.178;5.900;2022-12-24T09:01:28;101022.75;;;16.32;60.12
50338;BME280;46221;51.178;5.900;2022-12-24T09:03:56;101026.38;;;16.31;59.99
50338;BME280;46221;51.178;5.900;2022-12-24T09:06:25;101042.16;;;16.35;60.44
50338;BME280;46221;51.178;5.900;2022-12-24T09:08:54;101039.50;;;16.35;60.13
50338;BME280;46221;51.178;5.900;2022-12-24T09:11:24;101048.31;;;16.37;60.00
50338;BME280;46221;51.178;5.900;2022-12-24T09:13:53;101039.50;;;16.35;60.09
50338;BME280;46221;51.178;5.900;2022-12-24T09:16:19;101043.84;;;16.38;59.95
50338;BME280;46221;51.178;5.900;2022-12-24T09:18:46;101041.31;;;16.35;60.23
50338;BME280;46221;51.178;5.900;2022-12-24T09:21:14;101040.53;;;16.33;59.87
50338;BME280;46221;51.178;5.900;2022-12-24T09:23:43;101061.44;;;16.42;60.04
50338;BME280;46221;51.178;5.900;2022-12-24T09:26:16;101068.56;;;16.43;59.93
50338;BME280;46221;51.178;5.900;2022-12-24T09:28:43;101075.78;;;16.41;59.93
50338;BME280;46221;51.178;5.900;2022-12-24T09:31:10;101070.28;;;16.44;59.86
50338;BME280;46221;51.178;5.900;2022-12-24T09:33:38;101087.03;;;16.47;59.86
50338;BME280;46221;51.178;5.900;2022-12-24T09:36:06;101084.97;;;16.53;59.80
50338;BME280;46221;51.178;5.900;2022-12-24T09:38:34;101089.31;;;16.55;59.86
50338;BME280;46221;51.178;5.900;2022-12-24T09:41:01;101079.56;;;16.54;59.57
50338;BME280;46221;51.178;5.900;2022-12-24T09:43:34;101090.13;;;16.57;59.73
50338;BME280;46221;51.178;5.900;2022-12-24T09:46:22;101099.88;;;16.58;59.47
50338;BME280;46221;51.178;5.900;2022-12-24T09:48:53;101103.34;;;16.60;59.50
50338;BME280;46221;51.178;5.900;2022-12-24T09:51:38;101100.50;;;16.63;59.54
50338;BME280;46221;51.178;5.900;2022-12-24T09:56:52;101115.63;;;16.64;59.81
50338;BME280;46221;51.178;5.900;2022-12-24T09:59:22;101112.69;;;16.69;59.43
50338;BME280;46221;51.178;5.900;2022-12-24T10:01:52;101112.53;;;16.72;59.21
50338;BME280;46221;51.178;5.900;2022-12-24T10:04:22;101106.22;;;16.75;59.32
50338;BME280;46221;51.178;5.900;2022-12-24T10:09:43;101121.97;;;16.81;58.64
50338;BME280;46221;51.178;5.900;2022-12-24T10:23:14;101130.53;;;16.87;58.49
50338;BME280;46221;51.178;5.900;2022-12-24T10:25:47;101134.03;;;16.89;58.83
50338;BME280;46221;51.178;5.900;2022-12-24T10:28:17;101133.06;;;16.90;58.52
50338;BME280;46221;51.178;5.900;2022-12-24T10:30:47;101125.91;;;16.91;58.68
50338;BME280;46221;51.178;5.900;2022-12-24T10:33:23;101123.22;;;16.91;58.55
50338;BME280;46221;51.178;5.900;2022-12-24T10:35:55;101127.72;;;16.90;58.58
50338;BME280;46221;51.178;5.900;2022-12-24T10:38:22;101123.13;;;16.92;58.94
50338;BME280;46221;51.178;5.900;2022-12-24T10:40:50;101119.59;;;16.92;58.75
50338;BME280;46221;51.178;5.900;2022-12-24T10:43:21;101118.56;;;16.94;58.76
50338;BME280;46221;51.178;5.900;2022-12-24T10:46:04;101110.47;;;16.96;58.47
50338;BME280;46221;51.178;5.900;2022-12-24T10:48:40;101108.50;;;17.00;58.39
50338;BME280;46221;51.178;5.900;2022-12-24T10:51:20;101120.66;;;17.05;58.57
50338;BME280;46221;51.178;5.900;2022-12-24T10:54:00;101115.16;;;17.08;58.15
50338;BME280;46221;51.178;5.900;2022-12-24T10:56:41;101116.91;;;17.09;58.16
50338;BME280;46221;51.178;5.900;2022-12-24T10:59:53;101115.16;;;17.08;57.88
50338;BME280;46221;51.178;5.900;2022-12-24T11:02:37;101125.88;;;17.08;58.09
50338;BME280;46221;51.178;5.900;2022-12-24T11:05:25;101117.53;;;17.14;58.18
50338;BME280;46221;51.178;5.900;2022-12-24T11:10:53;101111.84;;;17.21;57.93
50338;BME280;46221;51.178;5.900;2022-12-24T11:13:32;101105.38;;;17.25;57.73
50338;BME280;46221;51.178;5.900;2022-12-24T11:16:50;101122.06;;;17.30;57.81
50338;BME280;46221;51.178;5.900;2022-12-24T11:18:52;101117.19;;;17.21;57.85
50338;BME280;46221;51.178;5.900;2022-12-24T11:21:27;101122.78;;;17.33;57.91
50338;BME280;46221;51.178;5.900;2022-12-24T11:24:13;101122.25;;;17.42;57.71
50338;BME280;46221;51.178;5.900;2022-12-24T11:26:43;101114.94;;;17.46;57.73
50338;BME280;46221;51.178;5.900;2022-12-24T11:29:20;101119.44;;;17.61;57.09
50338;BME280;46221;51.178;5.900;2022-12-24T11:31:48;101115.63;;;17.65;56.77
50338;BME280;46221;51.178;5.900;2022-12-24T11:36:49;101110.97;;;17.69;56.74
50338;BME280;46221;51.178;5.900;2022-12-24T11:39:19;101107.69;;;17.64;56.73
50338;BME280;46221;51.178;5.900;2022-12-24T11:41:47;101117.81;;;17.75;56.34
50338;BME280;46221;51.178;5.900;2022-12-24T11:44:25;101104.41;;;17.75;56.14
50338;BME280;46221;51.178;5.900;2022-12-24T11:46:54;101111.03;;;17.85;56.41
50338;BME280;46221;51.178;5.900;2022-12-24T11:49:30;101123.31;;;17.89;56.37
50338;BME280;46221;51.178;5.900;2022-12-24T11:54:58;101107.41;;;17.86;55.75
50338;BME280;46221;51.178;5.900;2022-12-24T11:57:31;101114.00;;;17.96;56.06
50338;BME280;46221;51.178;5.900;2022-12-24T12:00:00;101123.41;;;18.03;55.98
50338;BME280;46221;51.178;5.900;2022-12-24T12:02:32;101119.31;;;18.12;55.79
50338;BME280;46221;51.178;5.900;2022-12-24T12:05:14;101123.50;;;18.18;55.41
50338;BME280;46221;51.178;5.900;2022-12-24T12:07:45;101135.94;;;18.19;55.19
50338;BME280;46221;51.178;5.900;2022-12-24T12:12:50;101126.00;;;18.21;55.16
50338;BME280;46221;51.178;5.900;2022-12-24T12:15:24;101136.38;;;18.27;55.06
50338;BME280;46221;51.178;5.900;2022-12-24T12:18:08;101140.72;;;18.29;55.00
50338;BME280;46221;51.178;5.900;2022-12-24T12:20:41;101148.66;;;18.31;55.26
50338;BME280;46221;51.178;5.900;2022-12-24T12:28:29;101134.56;;;18.27;54.83
50338;BME280;46221;51.178;5.900;2022-12-24T12:31:12;101143.28;;;18.31;54.56
50338;BME280;46221;51.178;5.900;2022-12-24T12:34:20;101160.88;;;18.37;54.71
50338;BME280;46221;51.178;5.900;2022-12-24T12:37:11;101163.81;;;18.32;54.76
50338;BME280;46221;51.178;5.900;2022-12-24T12:39:40;101163.91;;;18.30;54.92
50338;BME280;46221;51.178;5.900;2022-12-24T12:42:28;101179.72;;;18.35;54.65
50338;BME280;46221;51.178;5.900;2022-12-24T12:50:24;101166.25;;;18.37;54.54
50338;BME280;46221;51.178;5.900;2022-12-24T12:55:54;101160.44;;;18.28;54.60
50338;BME280;46221;51.178;5.900;2022-12-24T12:58:29;101177.06;;;18.35;54.91
50338;BME280;46221;51.178;5.900;2022-12-24T13:01:08;101171.94;;;18.30;54.34
50338;BME280;46221;51.178;5.900;2022-12-24T13:06:42;101169.34;;;18.29;54.72
50338;BME280;46221;51.178;5.900;2022-12-24T13:15:44;101165.19;;;18.39;54.78
50338;BME280;46221;51.178;5.900;2022-12-24T13:18:48;101163.97;;;18.45;54.80
50338;BME280;46221;51.178;5.900;2022-12-24T13:21:22;101162.84;;;18.49;54.90
50338;BME280;46221;51.178;5.900;2022-12-24T13:24:11;101167.09;;;18.53;54.53
50338;BME280;46221;51.178;5.900;2022-12-24T13:26:40;101168.72;;;18.55;54.50
50338;BME280;46221;51.178;5.900;2022-12-24T13:34:56;101177.56;;;18.57;54.44
50338;BME280;46221;51.178;5.900;2022-12-24T13:37:34;101187.50;;;18.55;54.37
50338;BME280;46221;51.178;5.900;2022-12-24T13:45:42;101191.16;;;18.54;54.48
50338;BME280;46221;51.178;5.900;2022-12-24T13:50:37;101191.16;;;18.54;54.59
50338;BME280;46221;51.178;5.900;2022-12-24T13:56:07;101183.63;;;18.45;54.74
50338;BME280;46221;51.178;5.900;2022-12-24T13:58:41;101181.91;;;18.44;54.89
50338;BME280;46221;51.178;5.900;2022-12-24T14:01:32;101179.72;;;18.35;54.41
50338;BME280;46221;51.178;5.900;2022-12-24T14:04:03;101190.91;;;18.43;54.90
50338;BME280;46221;51.178;5.900;2022-12-24T14:06:33;101174.38;;;18.35;54.60
50338;BME280;46221;51.178;5.900;2022-12-24T14:09:10;101193.78;;;18.40;55.08
50338;BME280;46221;51.178;5.900;2022-12-24T14:14:35;101190.75;;;18.30;55.17
50338;BME280;46221;51.178;5.900;2022-12-24T14:19:44;101189.88;;;18.30;55.17
50338;BME280;46221;51.178;5.900;2022-12-24T14:22:29;101201.03;;;18.22;55.45
50338;BME280;46221;51.178;5.900;2022-12-24T14:25:08;101209.06;;;18.22;55.42
50338;BME280;46221;51.178;5.900;2022-12-24T14:27:43;101215.22;;;18.24;55.37
50338;BME280;46221;51.178;5.900;2022-12-24T14:30:16;101216.19;;;18.23;55.51
50338;BME280;46221;51.178;5.900;2022-12-24T14:32:44;101221.78;;;18.19;55.84
50338;BME280;46221;51.178;5.900;2022-12-24T14:35:14;101217.28;;;18.19;55.79
50338;BME280;46221;51.178;5.900;2022-12-24T14:37:46;101227.31;;;18.16;55.79
50338;BME280;46221;51.178;5.900;2022-12-24T14:40:26;101225.59;;;18.15;55.82
50338;BME280;46221;51.178;5.900;2022-12-24T14:43:01;101218.06;;;18.05;55.68